Flight Track Log - Related Links

Times and Time Zones

All times are in EDT time to prevent confusion due to time zone crossing. See the FLG4342 flight status page for this flight to view local times or setup timezone preferences in your user account.


Time Position Orientation Groundspeed Altitude Reporting Facility
EDT Latitude Longitude Course Direction KTS MPH feet Rate Location/Type
Mon 12:43:02 PM 42.7483 -73.8256 283° West 151 174 1,200  Level Boston Center
Mon 12:43:56 PM 42.7603 -73.8822 286° West 187 215 3,400 2,299 Climbing Boston Center
Mon 12:44:49 PM 42.7867 -73.9311 306° West 203 234 5,300 2,602 Climbing Boston Center
Mon 12:45:49 PM 42.8272 -74.0083 306° West 231 266 8,300 2,850 Climbing Boston Center
Mon 12:46:00 PM 42.8250 -74.2749 281° West  Level FlightAware Approximate
Mon 12:46:49 PM 42.8719 -74.0889 307° West 247 284 11,000  Level Boston Center
Mon 12:47:00 PM 42.8439 -74.3964 283° West  Level FlightAware Approximate
Mon 12:47:49 PM 42.9167 -74.1753 305° West 282 325 12,600  Level Boston Center
Mon 12:48:00 PM 42.8641 -74.5177 283° West  Level FlightAware Approximate
Mon 12:48:49 PM 42.9586 -74.2869 297° West 303 349 14,700  Level Boston Center
Mon 12:49:49 PM 42.9733 -74.3981 280° West 320 368 16,400 1,700 Climbing Boston Center
Mon 12:50:49 PM 42.9875 -74.5347 278° West 337 388 18,100 1,450 Climbing Boston Center
Mon 12:51:49 PM 43.0000 -74.6517 278° West 342 394 19,300 1,100 Climbing Boston Center
Mon 12:52:49 PM 43.0161 -74.7886 279° West 353 406 20,300 900 Climbing Boston Center
Mon 12:53:49 PM 43.0264 -74.8969 277° West 360 414 21,100 1,050 Climbing Boston Center
Mon 12:54:49 PM 43.0475 -75.0683 280° West 371 427 22,400 1,600 Climbing Boston Center
Mon 12:55:49 PM 43.0608 -75.2081 277° West 376 433 24,300 1,700 Climbing Boston Center
Mon 12:56:49 PM 43.0719 -75.3422 277° West 371 427 25,800 1,400 Climbing Boston Center
Mon 12:57:49 PM 43.0875 -75.4739 279° West 366 421 27,100 1,100 Climbing Boston Center
Mon 12:58:49 PM 43.1006 -75.6053 278° West 366 421 28,000 450 Climbing Boston Center
Mon 12:59:49 PM 43.1153 -75.7483 278° West 366 421 28,000  Level Boston Center
Mon 01:00:49 PM 43.1317 -75.8942 279° West 380 437 28,000  Level Boston Center
Mon 01:01:49 PM 43.1458 -76.0458 277° West 395 455 28,000  Level Boston Center
Mon 01:04:15 PM 43.1422 -76.4286 269° West 419 482 28,000  Level Cleveland Center
Mon 01:05:15 PM 43.1269 -76.5861 262° West 424 488 28,000  Level Cleveland Center
Mon 01:06:15 PM 43.1136 -76.7464 264° West 429 494 28,000  Level Cleveland Center
Mon 01:07:15 PM 43.1000 -76.9036 263° West 429 494 28,000  Level Cleveland Center
Mon 01:08:15 PM 43.0861 -77.0608 263° West 429 494 28,000  Level Cleveland Center
Mon 01:09:15 PM 43.0719 -77.2208 263° West 429 494 28,000  Level Cleveland Center
Mon 01:10:15 PM 43.0578 -77.3808 263° West 429 494 28,000  Level Cleveland Center
Mon 01:11:15 PM 43.0392 -77.5408 261° West 429 494 28,000  Level Cleveland Center
Mon 01:12:15 PM 43.0247 -77.7033 263° West 429 494 28,000  Level Cleveland Center
Mon 01:13:15 PM 43.0119 -77.8631 264° West 429 494 28,000  Level Cleveland Center
Mon 01:14:15 PM 42.9925 -78.0228 261° West 429 494 28,000  Level Cleveland Center
Mon 01:15:15 PM 42.9772 -78.1825 263° West 429 494 28,000  Level Cleveland Center
Mon 01:16:15 PM 42.9600 -78.3619 263° West 429 494 28,000  Level Cleveland Center
Mon 01:17:15 PM 42.9442 -78.5214 262° West 429 494 28,000  Level Cleveland Center
Mon 01:18:15 PM 42.9261 -78.6836 261° West 429 494 28,000  Level Cleveland Center
Mon 01:19:15 PM 42.9036 -78.8400 259° West 429 494 28,000  Level Cleveland Center
Mon 01:20:15 PM 42.8789 -79.0022 258° West 429 494 28,000  Level Cleveland Center
Mon 01:21:15 PM 42.8578 -79.1558 259° West 429 494 28,000  Level Cleveland Center
Mon 01:22:15 PM 42.8367 -79.3119 260° West 429 494 28,000  Level Cleveland Center
Mon 01:23:15 PM 42.7778 -79.4433 239° Southwest 414 476 28,000  Level Cleveland Center
Mon 01:24:15 PM 42.6956 -79.5661 228° Southwest 425 489 28,000  Level Cleveland Center
Mon 01:25:15 PM 42.6278 -79.6886 233° Southwest 425 489 28,000  Level Cleveland Center
Mon 01:26:15 PM 42.6286 -79.8381 270° West 383 441 28,000  Level Cleveland Center
Mon 01:27:15 PM 42.6358 -79.9878 274° West 384 442 28,000  Level Cleveland Center
Mon 01:28:15 PM 42.6511 -80.1344 278° West 391 450 28,000  Level Cleveland Center
Mon 01:29:15 PM 42.6600 -80.2756 275° West 391 450 28,000  Level Cleveland Center
Mon 01:30:15 PM 42.6706 -80.4222 276° West 391 450 28,000  Level Cleveland Center
Mon 01:31:15 PM 42.6833 -80.5719 277° West 391 450 28,000 -100 Level Cleveland Center
Mon 01:32:15 PM 42.6936 -80.7158 276° West 391 450 27,800 -550 Descending Cleveland Center
Mon 01:33:15 PM 42.7036 -80.8486 276° West 391 450 26,900 -1,000 Descending Cleveland Center
Mon 01:34:15 PM 42.6950 -80.9983 266° West 381 438 25,800 -1,100 Descending Cleveland Center
Mon 01:35:15 PM 42.6797 -81.1394 262° West 388 447 24,700 -1,100 Descending Cleveland Center
Mon 01:36:15 PM 42.6622 -81.2861 261° West 388 447 23,600 -1,100 Descending Cleveland Center
Mon 01:37:15 PM 42.6447 -81.4214 260° West 388 447 22,500 -1,150 Descending Cleveland Center
Mon 01:38:15 PM 42.6289 -81.5622 261° West 388 447 21,300 -1,200 Descending Cleveland Center
Mon 01:39:15 PM 42.6111 -81.7003 260° West 382 440 20,100 -1,200 Descending Cleveland Center
Mon 01:40:15 PM 42.5950 -81.8325 261° West 377 434 18,900 -1,050 Descending Cleveland Center
Mon 01:41:15 PM 42.5789 -81.9675 261° West 367 422 18,000 -1,150 Descending Cleveland Center
Mon 01:42:15 PM 42.5628 -82.0997 261° West 367 422 16,600 -1,450 Descending Cleveland Center
Mon 01:43:15 PM 42.5483 -82.2292 261° West 362 417 15,100 -1,579 Descending Cleveland Center
Mon 01:44:09 PM 42.5319 -82.3611 260° West 343 395 13,600 -1,667 Descending Cleveland Center
Mon 01:44:27 PM 42.5272 -82.3975 260° West 342 394 13,100 -1,364 Descending Cleveland Center
Mon 01:45:15 PM 42.5153 -82.4844 259° West 351 404 12,100 -931 Descending Cleveland Center
Mon 01:46:23 PM 42.4861 -82.6161 253° West 274 315 11,300 -1,000 Descending Cleveland Center
Mon 01:47:15 PM 42.4578 -82.6856 241° Southwest 304 350 10,100 -1,612 Descending Cleveland Center
Mon 01:47:30 PM 42.4464 -82.7244 248° West 269 310 9,500 -1,100 Descending Cleveland Center
Mon 01:48:15 PM 42.4267 -82.7800 244° Southwest 285 328 9,000 -787 Descending Cleveland Center
Mon 01:48:31 PM 42.4239 -82.8167 264° West 267 307 8,700 -1,352 Descending Cleveland Center
Mon 01:49:26 PM 42.4136 -82.9089 261° West 266 306 7,400 -1,269 Descending Cleveland Center
Mon 01:50:15 PM 42.4039 -82.9761 259° West 269 310 6,500 -1,101 Descending Cleveland Center
Mon 01:51:15 PM 42.3936 -83.0769 262° West 269 310 5,400 -850 Descending Cleveland Center
Mon 01:52:15 PM 42.3686 -83.1689 250° West 274 315 4,800 -600 Descending Cleveland Center

Login

Don't have an account? Register now (free) for customized features, flight alerts, and more!